Time;durP1;ratioP1;P1;durP2;ratioP2;P2;SDS_P1;SDS_P2;PMS_P1;PMS_P2;Temp;Humidity;BMP_temperature;BMP_pressure;BME280_temperature;BME280_humidity;BME280_pressure;Samples;Min_cycle;Max_cycle;Signal;HPM_P1;HPM_P2
2021/12/16 00:08:34;;;;;;;31.37;20.47;;;3.80;99.90;;;;;;5069027;28;20111;-75
2021/12/16 00:11:17;;;;;;;31.60;20.83;;;3.70;99.90;;;;;;5073595;28;20187;-75
2021/12/16 00:33:09;;;;;;;26.30;18.50;;;3.80;99.90;;;;;;5071936;28;20028;-75
2021/12/16 00:35:32;;;;;;;27.80;19.20;;;4.00;99.90;;;;;;5071909;28;20017;-75
2021/12/16 00:37:58;;;;;;;25.03;18.40;;;4.00;99.90;;;;;;5072270;28;20029;-75
2021/12/16 00:40:24;;;;;;;28.10;19.53;;;4.00;99.90;;;;;;5072872;28;20075;-75
2021/12/16 00:42:54;;;;;;;26.47;17.63;;;3.80;99.90;;;;;;5073029;28;20032;-75
2021/12/16 00:45:45;;;;;;;25.70;18.07;;;3.80;99.90;;;;;;5070289;28;20476;-75
2021/12/16 00:55:56;;;;;;;26.80;18.53;;;3.60;99.90;;;;;;5068555;28;20043;-75
2021/12/16 00:58:28;;;;;;;28.77;19.97;;;3.50;99.90;;;;;;5069890;28;20078;-75
2021/12/16 01:01:44;;;;;;;26.60;19.20;;;3.50;99.90;;;;;;5071713;28;20039;-75
2021/12/16 01:04:13;;;;;;;27.63;19.17;;;3.40;99.90;;;;;;5052775;28;20123;-75
2021/12/16 01:06:53;;;;;;;24.33;17.60;;;3.50;99.90;;;;;;5071659;28;20090;-75
2021/12/16 01:45:43;;;;;;;35.80;23.60;;;3.70;99.90;;;;;;5026631;28;20029;-75
2021/12/16 01:54:32;;;;;;;36.27;24.90;;;3.70;99.90;;;;;;5039740;28;20040;-79
2021/12/16 01:57:11;;;;;;;35.77;24.27;;;3.60;99.90;;;;;;5067700;28;20063;-79
2021/12/16 01:59:40;;;;;;;29.43;21.10;;;3.50;99.90;;;;;;5067707;28;20032;-79
2021/12/16 02:02:18;;;;;;;30.53;21.17;;;3.60;99.90;;;;;;5050030;28;20439;-79
2021/12/16 02:05:09;;;;;;;30.30;21.53;;;3.70;99.90;;;;;;5050476;28;20444;-79
2021/12/16 02:08:12;;;;;;;26.27;19.50;;;3.70;99.90;;;;;;5068065;28;20483;-79
2021/12/16 02:10:20;;;;;;;27.13;20.63;;;3.70;99.90;;;;;;5067775;28;20035;-79
2021/12/16 02:13:12;;;;;;;28.67;20.07;;;3.60;99.90;;;;;;5067255;28;20029;-79
2021/12/16 02:29:45;;;;;;;32.37;21.70;;;3.50;99.90;;;;;;5068142;28;20526;-79
2021/12/16 02:32:31;;;;;;;36.05;24.70;;;3.40;99.90;;;;;;5067706;28;20032;-79
2021/12/16 02:37:33;;;;;;;34.37;23.43;;;3.40;99.90;;;;;;5068549;28;19915;-79
2021/12/16 02:40:01;;;;;;;38.47;25.43;;;3.40;99.90;;;;;;5067492;28;20044;-78
2021/12/16 02:42:37;;;;;;;36.37;25.23;;;3.30;99.90;;;;;;5067791;28;20143;-79
2021/12/16 02:50:18;;;;;;;40.03;26.67;;;3.30;99.90;;;;;;5067062;28;20061;-78
2021/12/16 02:52:44;;;;;;;39.67;26.30;;;3.30;99.90;;;;;;5047705;28;20028;-79
2021/12/16 02:55:12;;;;;;;40.30;27.47;;;3.20;99.90;;;;;;5068130;28;20039;-78
2021/12/16 02:57:58;;;;;;;39.33;26.80;;;3.20;99.90;;;;;;5066848;28;20036;-78
2021/12/16 03:00:24;;;;;;;36.57;25.27;;;3.20;99.90;;;;;;5067870;28;20031;-78
2021/12/16 03:02:52;;;;;;;40.47;27.37;;;3.40;99.90;;;;;;5067519;28;20033;-79
2021/12/16 03:05:20;;;;;;;42.20;28.03;;;3.40;99.90;;;;;;5066499;28;20462;-79
2021/12/16 03:07:47;;;;;;;42.67;27.73;;;3.40;99.90;;;;;;5072054;28;20016;-79
2021/12/16 03:12:59;;;;;;;37.47;25.23;;;3.40;99.90;;;;;;5072735;28;20035;-79
2021/12/16 03:21:29;;;;;;;40.67;25.73;;;3.60;99.90;;;;;;5050798;28;20036;-78
2021/12/16 03:24:26;;;;;;;39.53;26.10;;;3.60;99.90;;;;;;5056403;28;20519;-78
2021/12/16 03:32:17;;;;;;;39.25;27.42;;;3.70;99.90;;;;;;5071597;28;20431;-78
2021/12/16 03:35:03;;;;;;;43.23;28.03;;;3.60;99.90;;;;;;5071975;28;20027;-77
2021/12/16 03:37:30;;;;;;;41.10;28.15;;;3.60;99.90;;;;;;5073737;28;20028;-77
2021/12/16 03:40:10;;;;;;;40.50;25.97;;;3.50;99.90;;;;;;5073346;28;20055;-77
2021/12/16 03:42:38;;;;;;;38.87;26.20;;;3.50;99.90;;;;;;5074004;28;20075;-77
2021/12/16 03:46:25;;;;;;;38.67;25.27;;;3.50;99.90;;;;;;5071274;28;20029;-76
2021/12/16 03:47:57;;;;;;;38.23;25.93;;;3.50;99.90;;;;;;5073584;28;20040;-78
2021/12/16 03:50:22;;;;;;;42.07;26.73;;;3.30;99.90;;;;;;5073209;28;20029;-77
2021/12/16 03:52:49;;;;;;;41.83;27.37;;;3.30;99.90;;;;;;5073962;28;20060;-79
2021/12/16 03:55:17;;;;;;;40.10;26.30;;;3.30;99.90;;;;;;5054577;28;20532;-79
2021/12/16 03:57:43;;;;;;;41.83;27.17;;;3.30;99.90;;;;;;5070064;28;20051;-79
2021/12/16 04:00:15;;;;;;;41.53;26.83;;;3.20;99.90;;;;;;5053919;28;20080;-79
2021/12/16 04:02:41;;;;;;;32.37;21.50;;;3.30;99.90;;;;;;5073432;28;20115;-79
2021/12/16 04:05:09;;;;;;;36.77;24.47;;;3.50;99.90;;;;;;5054652;28;20108;-75
2021/12/16 04:07:38;;;;;;;34.47;23.53;;;3.60;99.90;;;;;;5077157;28;20021;-75
2021/12/16 04:10:09;;;;;;;37.93;24.63;;;3.60;99.90;;;;;;5077369;28;20025;-75
2021/12/16 04:12:35;;;;;;;37.77;25.27;;;3.60;99.90;;;;;;5058833;28;20028;-75
2021/12/16 04:15:03;;;;;;;36.70;24.60;;;3.60;99.90;;;;;;5075186;28;20016;-75
2021/12/16 04:17:32;;;;;;;38.13;24.10;;;3.50;99.90;;;;;;5072367;28;20077;-75
2021/12/16 04:19:59;;;;;;;35.33;23.30;;;3.50;99.90;;;;;;5069722;28;20511;-75
2021/12/16 04:22:32;;;;;;;36.70;22.33;;;3.40;99.90;;;;;;5072625;28;20024;-75
2021/12/16 04:25:01;;;;;;;33.63;22.23;;;3.40;99.90;;;;;;5072155;28;20028;-75
2021/12/16 04:27:29;;;;;;;34.47;21.97;;;3.30;99.90;;;;;;5071886;28;20027;-75
2021/12/16 04:29:55;;;;;;;29.93;20.23;;;3.40;99.90;;;;;;5073054;28;20021;-75
2021/12/16 04:32:21;;;;;;;29.97;20.33;;;3.30;99.90;;;;;;5073872;28;20345;-75
2021/12/16 04:34:47;;;;;;;29.27;19.90;;;3.30;99.90;;;;;;5073059;28;20030;-75
2021/12/16 04:37:13;;;;;;;27.87;18.47;;;3.40;99.90;;;;;;5073823;28;20040;-75
2021/12/16 04:39:46;;;;;;;27.40;17.80;;;3.40;99.90;;;;;;5072945;28;20076;-75
2021/12/16 04:42:13;;;;;;;28.80;19.00;;;3.40;99.90;;;;;;5073150;28;20111;-75
2021/12/16 04:44:41;;;;;;;27.37;17.80;;;3.30;99.90;;;;;;5074007;28;20029;-75
2021/12/16 04:47:08;;;;;;;23.67;15.63;;;3.20;99.90;;;;;;5052874;28;20028;-75
2021/12/16 04:49:34;;;;;;;24.50;16.53;;;3.30;99.90;;;;;;5071064;28;20044;-75
2021/12/16 04:52:04;;;;;;;24.00;16.43;;;3.40;99.90;;;;;;5071981;28;20099;-75
2021/12/16 04:54:30;;;;;;;24.53;15.27;;;3.40;99.90;;;;;;5049723;28;20036;-75
2021/12/16 04:56:58;;;;;;;28.67;16.80;;;3.30;99.90;;;;;;5071269;28;20024;-75
2021/12/16 04:59:24;;;;;;;24.67;16.03;;;3.20;99.90;;;;;;5053490;28;20381;-75
2021/12/16 05:01:56;;;;;;;23.70;15.20;;;3.20;99.90;;;;;;5072773;28;20123;-75
2021/12/16 05:04:21;;;;;;;23.70;15.53;;;3.30;99.90;;;;;;5070744;28;20039;-75
2021/12/16 05:06:47;;;;;;;23.57;15.07;;;3.20;99.90;;;;;;5072849;28;20024;-74
2021/12/16 05:09:19;;;;;;;22.80;15.10;;;3.30;99.90;;;;;;5072138;28;20115;-74
2021/12/16 05:11:45;;;;;;;20.83;13.60;;;3.30;99.90;;;;;;5071345;28;20097;-78
2021/12/16 05:14:11;;;;;;;20.47;13.43;;;3.30;99.90;;;;;;5071775;28;20036;-75
2021/12/16 05:16:37;;;;;;;20.80;14.00;;;3.30;99.90;;;;;;5073928;28;20028;-75
2021/12/16 05:19:03;;;;;;;22.10;14.93;;;3.20;99.90;;;;;;5073308;28;20036;-75
2021/12/16 05:21:45;;;;;;;27.07;17.37;;;3.10;99.90;;;;;;5070172;28;20111;-75
2021/12/16 05:24:26;;;;;;;23.47;14.73;;;3.10;99.90;;;;;;5073624;28;20029;-75
2021/12/16 05:27:01;;;;;;;22.57;14.30;;;3.00;99.90;;;;;;5064878;28;20043;-75
2021/12/16 05:29:28;;;;;;;22.73;13.95;;;2.90;99.90;;;;;;5072102;28;20028;-79
2021/12/16 05:31:54;;;;;;;24.50;15.13;;;3.00;99.90;;;;;;5071160;28;20043;-79
2021/12/16 05:34:21;;;;;;;21.60;14.27;;;2.90;99.90;;;;;;5053121;28;20047;-79
2021/12/16 05:36:46;;;;;;;24.20;15.63;;;2.90;99.90;;;;;;5070612;28;20024;-79
2021/12/16 05:39:15;;;;;;;23.33;14.77;;;2.80;99.90;;;;;;5070567;28;20055;-79
2021/12/16 05:41:41;;;;;;;20.73;14.23;;;2.90;99.90;;;;;;5070600;28;20089;-79
2021/12/16 05:44:07;;;;;;;21.23;14.57;;;2.90;99.90;;;;;;5052674;28;20551;-79
2021/12/16 05:46:33;;;;;;;23.80;15.10;;;3.00;99.90;;;;;;5070717;28;20190;-79
2021/12/16 05:49:02;;;;;;;21.83;14.53;;;3.00;99.90;;;;;;5070673;28;20107;-79
2021/12/16 05:51:31;;;;;;;21.47;15.07;;;3.20;99.90;;;;;;5070644;28;20032;-79
2021/12/16 05:53:58;;;;;;;20.83;14.97;;;3.10;99.90;;;;;;5052346;28;20047;-79
2021/12/16 05:56:25;;;;;;;26.43;17.57;;;3.20;99.90;;;;;;5070543;28;20021;-79
2021/12/16 05:58:51;;;;;;;25.63;15.73;;;3.10;99.90;;;;;;5067686;28;20038;-77
2021/12/16 06:01:24;;;;;;;25.80;17.33;;;3.10;99.90;;;;;;5045175;28;20025;-84
2021/12/16 06:03:52;;;;;;;26.57;16.90;;;3.10;99.90;;;;;;5049313;28;20039;-77
2021/12/16 06:06:18;;;;;;;28.80;19.07;;;3.00;99.90;;;;;;5072832;28;20025;-76
2021/12/16 06:08:45;;;;;;;27.47;17.33;;;3.00;99.90;;;;;;5071464;28;20021;-78
2021/12/16 06:11:19;;;;;;;25.77;16.83;;;2.90;99.90;;;;;;5073049;28;20025;-66
2021/12/16 06:14:16;;;;;;;28.17;17.17;;;2.90;99.90;;;;;;5055567;28;20024;-80
2021/12/16 06:27:35;;;;;;;28.00;16.33;;;2.70;99.90;;;;;;5072897;28;20124;-77
2021/12/16 06:30:04;;;;;;;31.90;19.40;;;2.70;99.90;;;;;;5072603;28;20024;-77
2021/12/16 06:32:30;;;;;;;32.77;19.30;;;2.70;99.90;;;;;;5072744;28;20030;-77
2021/12/16 06:34:56;;;;;;;33.77;19.80;;;2.70;99.90;;;;;;5054553;28;20452;-76
2021/12/16 06:37:23;;;;;;;31.93;19.00;;;2.60;99.90;;;;;;5072143;28;20028;-76
2021/12/16 06:39:49;;;;;;;32.63;19.13;;;2.70;99.90;;;;;;5069066;28;20055;-77
2021/12/16 06:42:15;;;;;;;29.00;17.63;;;2.70;99.90;;;;;;5060805;28;20021;-77
2021/12/16 06:44:46;;;;;;;29.00;17.80;;;2.60;99.90;;;;;;5075942;28;20020;-77
2021/12/16 06:47:19;;;;;;;34.13;20.10;;;2.60;99.90;;;;;;5074831;28;20025;-77
2021/12/16 06:49:47;;;;;;;31.67;19.57;;;2.60;99.90;;;;;;5074701;28;20036;-77
2021/12/16 06:52:16;;;;;;;35.87;20.03;;;2.60;99.90;;;;;;5075439;28;20081;-77
2021/12/16 06:55:00;;;;;;;36.23;19.70;;;2.60;99.90;;;;;;5073381;28;20027;-78
2021/12/16 06:57:38;;;;;;;37.97;21.00;;;2.60;99.90;;;;;;5075426;28;20115;-77
2021/12/16 07:00:22;;;;;;;34.03;19.93;;;2.70;99.90;;;;;;5074217;28;20042;-77
2021/12/16 07:02:57;;;;;;;37.40;20.27;;;2.70;99.90;;;;;;5054820;28;20070;-77
2021/12/16 07:05:32;;;;;;;39.83;20.13;;;2.70;99.90;;;;;;5071947;28;20024;-80
2021/12/16 07:08:00;;;;;;;36.60;20.73;;;2.70;99.90;;;;;;5071978;28;20031;-78
2021/12/16 07:10:29;;;;;;;34.70;18.23;;;2.70;99.90;;;;;;5072372;28;20459;-79
2021/12/16 07:12:56;;;;;;;34.27;19.63;;;2.70;99.90;;;;;;5073700;28;20385;-79
2021/12/16 07:15:26;;;;;;;33.47;20.13;;;2.70;99.90;;;;;;5074441;28;20028;-78
2021/12/16 07:17:52;;;;;;;31.87;19.40;;;2.70;99.90;;;;;;5054328;28;20147;-78
2021/12/16 07:20:21;;;;;;;35.80;19.60;;;2.70;99.90;;;;;;5070685;28;20039;-78
2021/12/16 07:22:47;;;;;;;34.83;19.60;;;2.70;99.90;;;;;;5072414;28;20035;-79
2021/12/16 07:25:13;;;;;;;31.83;19.30;;;2.70;99.90;;;;;;5072336;28;20579;-78
2021/12/16 07:27:46;;;;;;;41.20;21.07;;;2.70;99.90;;;;;;5073239;28;20035;-79
2021/12/16 07:30:15;;;;;;;38.70;20.93;;;2.70;99.90;;;;;;5077166;28;20028;-79
2021/12/16 07:32:41;;;;;;;36.40;20.67;;;2.80;99.90;;;;;;5076746;28;20440;-78
2021/12/16 07:35:10;;;;;;;37.30;20.53;;;2.80;99.90;;;;;;5076569;28;20103;-79
2021/12/16 07:37:36;;;;;;;37.07;19.90;;;2.80;99.90;;;;;;5077246;28;20451;-68
2021/12/16 07:40:07;;;;;;;36.00;19.63;;;2.80;99.90;;;;;;5075612;28;20052;-79
2021/12/16 07:42:43;;;;;;;35.43;19.30;;;2.80;99.90;;;;;;5081315;28;20092;-78
2021/12/16 07:45:15;;;;;;;32.10;18.53;;;2.80;99.90;;;;;;5054834;28;21044;-77
2021/12/16 07:47:41;;;;;;;34.03;18.93;;;2.80;99.90;;;;;;5076826;28;20049;-77
2021/12/16 07:50:08;;;;;;;31.30;18.27;;;2.90;99.90;;;;;;5073997;28;20139;-77
2021/12/16 07:52:35;;;;;;;32.83;19.20;;;2.90;99.90;;;;;;5075381;28;20032;-77
2021/12/16 07:55:02;;;;;;;34.73;19.60;;;2.90;99.90;;;;;;5079974;28;20058;-77
2021/12/16 07:57:28;;;;;;;35.43;20.00;;;2.90;99.90;;;;;;5078190;28;20452;-77
2021/12/16 07:59:54;;;;;;;28.87;17.80;;;2.90;99.90;;;;;;5078177;28;20041;-77
2021/12/16 08:02:20;;;;;;;34.10;18.60;;;2.90;99.90;;;;;;5080533;28;20032;-79
2021/12/16 08:04:46;;;;;;;31.33;18.30;;;2.90;99.90;;;;;;5083491;28;20032;-79
2021/12/16 08:07:14;;;;;;;30.67;18.07;;;3.00;99.90;;;;;;5079598;28;20395;-79
2021/12/16 08:09:51;;;;;;;29.33;17.57;;;3.00;99.90;;;;;;5080933;28;20028;-79
2021/12/16 08:12:18;;;;;;;30.77;17.13;;;3.10;99.90;;;;;;5061047;28;20044;-79
2021/12/16 08:14:45;;;;;;;27.30;16.43;;;3.10;99.90;;;;;;5082109;28;20032;-78
2021/12/16 08:17:11;;;;;;;26.40;17.17;;;3.10;99.90;;;;;;5081653;28;20036;-78
2021/12/16 08:19:37;;;;;;;25.50;16.17;;;3.10;99.90;;;;;;5083293;28;20060;-79
2021/12/16 08:22:04;;;;;;;27.43;16.97;;;3.10;99.90;;;;;;5082509;28;20130;-78
2021/12/16 08:24:29;;;;;;;27.20;16.37;;;3.10;99.90;;;;;;5085932;28;20051;-79
2021/12/16 08:26:55;;;;;;;24.57;14.70;;;3.10;99.90;;;;;;5078781;28;20040;-78
2021/12/16 08:29:21;;;;;;;21.43;14.50;;;3.20;99.90;;;;;;5084193;28;20054;-79
2021/12/16 08:31:46;;;;;;;22.93;13.93;;;3.20;99.90;;;;;;5082229;28;20043;-79
2021/12/16 08:34:12;;;;;;;23.77;14.20;;;3.20;99.90;;;;;;5082095;28;20107;-79
2021/12/16 08:36:39;;;;;;;20.83;13.17;;;3.20;99.90;;;;;;5061450;28;20032;-78
2021/12/16 08:39:09;;;;;;;20.73;13.80;;;3.20;99.90;;;;;;5082487;28;20102;-79
2021/12/16 08:41:44;;;;;;;26.80;14.17;;;3.30;99.90;;;;;;5081354;28;20097;-78
2021/12/16 08:44:13;;;;;;;19.60;12.50;;;3.30;99.90;;;;;;5081683;28;20028;-78
2021/12/16 08:46:43;;;;;;;19.97;12.20;;;3.40;99.90;;;;;;5080179;28;20071;-78
2021/12/16 08:49:10;;;;;;;23.47;13.00;;;3.40;99.90;;;;;;5079665;28;20028;-78
2021/12/16 08:51:45;;;;;;;18.47;12.50;;;3.40;99.90;;;;;;5083340;28;20032;-78
2021/12/16 08:54:12;;;;;;;20.17;13.43;;;3.50;99.90;;;;;;5060555;28;20128;-79
2021/12/16 08:56:41;;;;;;;22.80;13.63;;;3.50;99.90;;;;;;5076133;28;20033;-79
2021/12/16 08:59:08;;;;;;;17.47;11.10;;;3.50;99.90;;;;;;5080356;28;20605;-79
2021/12/16 09:01:42;;;;;;;21.73;13.97;;;3.60;99.90;;;;;;5062862;28;20024;-79
2021/12/16 09:04:07;;;;;;;24.00;13.67;;;3.60;99.90;;;;;;5080593;28;20101;-79
2021/12/16 09:06:34;;;;;;;21.10;13.77;;;3.70;99.90;;;;;;5081753;28;20066;-79
2021/12/16 09:08:59;;;;;;;21.23;12.90;;;3.70;99.90;;;;;;5079560;28;20112;-79
2021/12/16 09:11:27;;;;;;;20.70;13.00;;;3.80;99.90;;;;;;5081723;28;20330;-79
2021/12/16 09:13:56;;;;;;;18.37;12.20;;;3.90;99.90;;;;;;5061954;28;20075;-79
2021/12/16 09:16:25;;;;;;;17.70;11.90;;;4.00;99.90;;;;;;5079389;28;20029;-79
2021/12/16 09:18:52;;;;;;;18.30;12.10;;;4.10;99.90;;;;;;5081843;28;20028;-79
2021/12/16 09:21:24;;;;;;;18.83;11.90;;;4.00;99.90;;;;;;5085009;28;20028;-79
2021/12/16 09:23:52;;;;;;;17.33;11.50;;;4.00;99.90;;;;;;5082884;28;20461;-79
2021/12/16 09:26:19;;;;;;;16.67;11.03;;;4.10;99.90;;;;;;5082619;28;20107;-79
2021/12/16 09:28:46;;;;;;;19.10;11.80;;;4.10;99.90;;;;;;5082019;28;20066;-79
2021/12/16 09:31:14;;;;;;;17.30;11.87;;;4.10;99.90;;;;;;5081720;28;20043;-79
2021/12/16 09:33:43;;;;;;;14.47;9.67;;;4.10;99.90;;;;;;5082007;28;20028;-79
2021/12/16 09:36:12;;;;;;;12.77;8.90;;;4.20;99.90;;;;;;5081394;28;20437;-79
2021/12/16 09:38:40;;;;;;;12.83;8.90;;;4.10;99.90;;;;;;5080083;28;20050;-79
2021/12/16 09:41:07;;;;;;;14.20;9.33;;;4.00;99.90;;;;;;5081250;28;20543;-78
2021/12/16 09:43:36;;;;;;;12.67;9.67;;;4.00;99.90;;;;;;5083561;28;20017;-78
2021/12/16 09:46:07;;;;;;;14.80;10.53;;;4.00;99.90;;;;;;5061227;28;20081;-78
2021/12/16 09:48:35;;;;;;;14.80;10.57;;;4.00;99.90;;;;;;5082388;28;20024;-78
2021/12/16 09:51:04;;;;;;;15.13;10.20;;;4.00;99.90;;;;;;5081152;28;20069;-78
2021/12/16 09:53:30;;;;;;;13.70;10.23;;;4.20;99.90;;;;;;5078931;28;20488;-79
2021/12/16 09:55:58;;;;;;;12.87;9.53;;;4.30;99.90;;;;;;5080342;28;20076;-79
2021/12/16 09:58:25;;;;;;;14.50;10.57;;;4.30;99.90;;;;;;5084070;28;20024;-79
2021/12/16 10:00:53;;;;;;;14.77;9.67;;;4.20;99.90;;;;;;5079872;28;20469;-79
2021/12/16 10:03:21;;;;;;;15.33;9.37;;;4.20;99.90;;;;;;5060881;28;20028;-77
2021/12/16 10:05:47;;;;;;;14.30;9.50;;;4.30;99.90;;;;;;5080821;28;20024;-77
2021/12/16 10:08:13;;;;;;;11.83;8.80;;;4.20;99.90;;;;;;5079986;28;20611;-77
2021/12/16 10:10:39;;;;;;;10.67;8.00;;;4.30;99.90;;;;;;5078145;28;20035;-77
2021/12/16 10:13:06;;;;;;;10.83;7.53;;;4.30;99.90;;;;;;5060831;28;20060;-78
2021/12/16 10:18:11;;;;;;;10.67;8.27;;;4.40;99.90;;;;;;5076601;28;20032;-77
2021/12/16 10:21:00;;;;;;;11.13;7.68;;;4.40;99.90;;;;;;5076725;28;20448;-77
2021/12/16 10:23:34;;;;;;;11.87;7.63;;;4.40;99.90;;;;;;5076032;28;20029;-77
2021/12/16 10:26:04;;;;;;;11.67;8.07;;;4.40;99.90;;;;;;5075239;28;20058;-77
2021/12/16 10:28:36;;;;;;;10.83;8.57;;;4.40;99.90;;;;;;5078116;28;20024;-77
2021/12/16 10:31:09;;;;;;;9.33;7.17;;;4.50;99.90;;;;;;5075131;28;20055;-77
2021/12/16 10:33:41;;;;;;;10.93;7.57;;;4.50;99.90;;;;;;5076977;28;20027;-77
2021/12/16 10:36:12;;;;;;;8.87;6.50;;;4.60;99.90;;;;;;5076665;28;20032;-77
2021/12/16 10:38:47;;;;;;;8.40;6.30;;;4.70;99.90;;;;;;5058744;28;20159;-77
2021/12/16 10:41:17;;;;;;;8.20;6.38;;;4.70;99.90;;;;;;5077447;28;20055;-77
2021/12/16 10:44:19;;;;;;;8.50;6.67;;;4.90;99.90;;;;;;5075916;28;20059;-78
2021/12/16 10:47:09;;;;;;;9.07;6.97;;;5.00;99.90;;;;;;5057036;28;20038;-77
2021/12/16 10:49:45;;;;;;;7.93;6.47;;;5.20;99.90;;;;;;5073366;28;20120;-68
2021/12/16 10:52:22;;;;;;;11.30;6.57;;;5.20;99.90;;;;;;5074877;28;20067;-77
2021/12/16 10:54:49;;;;;;;8.70;6.17;;;5.20;99.90;;;;;;5077729;28;20062;-77
2021/12/16 10:57:25;;;;;;;8.80;6.27;;;5.20;99.90;;;;;;5077346;28;20758;-77
2021/12/16 10:59:57;;;;;;;7.40;5.87;;;5.10;99.90;;;;;;5078079;28;20056;-77
2021/12/16 11:02:33;;;;;;;9.73;7.07;;;5.10;99.90;;;;;;5077847;28;20060;-81
2021/12/16 11:05:00;;;;;;;;;;;5.00;99.90;;;;;;5055707;28;20037;-76
2021/12/16 11:07:36;;;;;;;11.97;7.83;;;5.00;99.90;;;;;;5073014;28;19916;-75
2021/12/16 11:10:25;;;;;;;11.53;8.43;;;5.10;99.90;;;;;;5072935;28;20078;-75
2021/12/16 11:12:55;;;;;;;11.90;8.47;;;5.00;99.90;;;;;;5072158;28;20032;-77
2021/12/16 11:15:30;;;;;;;14.60;9.40;;;5.00;99.90;;;;;;5061451;22;20060;-75
2021/12/16 11:18:08;;;;;;;12.17;8.87;;;5.00;99.90;;;;;;5046894;28;20034;-75
2021/12/16 11:20:44;;;;;;;10.37;7.47;;;5.00;99.90;;;;;;5023267;28;20543;-77
2021/12/16 11:23:33;;;;;;;12.60;8.90;;;5.00;99.90;;;;;;5022882;28;20084;-77
2021/12/16 11:26:26;;;;;;;13.33;8.93;;;5.10;99.90;;;;;;5020241;28;20050;-77
2021/12/16 11:28:54;;;;;;;10.30;7.87;;;5.10;99.90;;;;;;5022121;28;20092;-77
2021/12/16 11:31:25;;;;;;;10.70;7.87;;;5.20;99.90;;;;;;5025883;28;20795;-77
2021/12/16 11:34:04;;;;;;;10.10;7.60;;;5.30;99.90;;;;;;5019814;28;20458;-77
2021/12/16 11:36:45;;;;;;;11.57;7.80;;;5.30;99.90;;;;;;5023801;28;20034;-78
2021/12/16 11:39:21;;;;;;;9.63;7.13;;;5.30;99.90;;;;;;5019593;28;20064;-78
2021/12/16 11:42:01;;;;;;;9.20;6.87;;;5.20;99.90;;;;;;5015383;28;20490;-78
2021/12/16 11:44:32;;;;;;;9.93;7.20;;;5.50;99.90;;;;;;5020693;28;20026;-78
2021/12/16 11:47:02;;;;;;;10.03;7.37;;;5.50;99.90;;;;;;5017291;28;20083;-78
2021/12/16 11:49:34;;;;;;;10.00;7.30;;;5.40;99.90;;;;;;5015977;28;20029;-75
2021/12/16 11:52:02;;;;;;;8.50;6.27;;;5.30;99.90;;;;;;5044653;28;21107;-75
2021/12/16 11:54:31;;;;;;;10.70;7.40;;;5.30;99.90;;;;;;5011298;28;20030;-75
2021/12/16 11:57:07;;;;;;;13.77;7.57;;;5.20;99.90;;;;;;5015361;28;20039;-77
2021/12/16 11:59:49;;;;;;;11.53;7.77;;;5.20;99.90;;;;;;5064567;28;20034;-75
2021/12/16 12:02:46;;;;;;;10.20;7.43;;;5.10;99.90;;;;;;5023591;28;20034;-78
2021/12/16 12:05:21;;;;;;;9.23;7.33;;;5.10;99.90;;;;;;5034293;28;20039;-78
2021/12/16 12:07:50;;;;;;;16.48;8.32;;;5.10;99.90;;;;;;5010145;28;20061;-78
2021/12/16 12:10:23;;;;;;;9.60;7.30;;;5.20;99.90;;;;;;5013280;28;20038;-78
2021/12/16 12:12:50;;;;;;;10.53;7.20;;;5.10;99.90;;;;;;5014597;28;20058;-78
2021/12/16 12:15:18;;;;;;;11.50;7.90;;;5.10;99.90;;;;;;5020848;28;20150;-78
2021/12/16 12:17:54;;;;;;;10.03;8.03;;;5.00;99.90;;;;;;5023375;28;20042;-78
2021/12/16 12:20:27;;;;;;;10.83;8.23;;;5.00;99.90;;;;;;5024977;28;20389;-78
2021/12/16 12:22:53;;;;;;;10.37;7.60;;;5.00;99.90;;;;;;5018165;28;20049;-77
2021/12/16 12:25:19;;;;;;;10.70;8.10;;;5.00;99.90;;;;;;5024306;28;20105;-78
2021/12/16 12:27:45;;;;;;;11.27;7.60;;;5.00;99.90;;;;;;5023686;28;20044;-79
2021/12/16 12:30:11;;;;;;;10.27;7.03;;;5.00;99.90;;;;;;5020371;28;20032;-79
2021/12/16 12:32:43;;;;;;;10.83;7.70;;;5.00;99.90;;;;;;5013330;28;20036;-78
2021/12/16 12:35:14;;;;;;;11.13;7.53;;;5.00;99.90;;;;;;5015719;28;20049;-75
2021/12/16 12:37:47;;;;;;;9.77;7.27;;;5.00;99.90;;;;;;5010676;28;20390;-79
2021/12/16 12:40:18;;;;;;;9.33;7.03;;;5.00;99.90;;;;;;5017192;28;20402;-79
2021/12/16 12:42:45;;;;;;;11.20;7.43;;;5.00;99.90;;;;;;5014345;28;20043;-79
2021/12/16 12:45:14;;;;;;;9.20;7.30;;;5.00;99.90;;;;;;5047185;28;20037;-79
2021/12/16 12:47:44;;;;;;;9.80;6.50;;;5.00;99.90;;;;;;5021776;28;20884;-75
2021/12/16 12:50:24;;;;;;;9.77;6.87;;;4.90;99.90;;;;;;5020573;28;20030;-79
2021/12/16 12:52:53;;;;;;;9.60;6.73;;;4.90;99.90;;;;;;5015816;28;20033;-78
2021/12/16 12:55:29;;;;;;;10.70;7.30;;;4.90;99.90;;;;;;5014835;28;20034;-75
2021/12/16 12:58:10;;;;;;;10.90;7.90;;;4.90;99.90;;;;;;5012362;28;20039;-79
2021/12/16 13:00:49;;;;;;;9.53;6.93;;;4.90;99.90;;;;;;5065164;28;20043;-75
2021/12/16 13:03:36;;;;;;;10.27;7.40;;;4.90;99.90;;;;;;5048789;28;20034;-79
2021/12/16 13:06:26;;;;;;;11.77;7.63;;;4.90;99.90;;;;;;5014960;28;20455;-78
2021/12/16 13:08:51;;;;;;;12.10;7.27;;;4.90;99.90;;;;;;5023647;28;20028;-78
2021/12/16 13:11:24;;;;;;;10.10;7.27;;;4.90;99.90;;;;;;5021616;28;20034;-76
2021/12/16 13:14:17;;;;;;;9.73;7.20;;;4.90;99.90;;;;;;5020751;28;20855;-76
2021/12/16 13:26:01;;;;;;;10.40;7.13;;;4.90;99.90;;;;;;5022102;28;20048;-75
2021/12/16 13:31:24;;;;;;;10.10;7.43;;;4.90;99.90;;;;;;5014432;28;20032;-76
2021/12/16 13:33:59;;;;;;;8.63;6.57;;;5.00;99.90;;;;;;5011929;28;20035;-76
2021/12/16 13:36:46;;;;;;;8.27;6.40;;;5.00;99.90;;;;;;5044787;28;20035;-76
2021/12/16 13:39:19;;;;;;;9.00;6.50;;;5.00;99.90;;;;;;5008204;28;20079;-76
2021/12/16 13:41:58;;;;;;;9.53;6.13;;;5.00;99.90;;;;;;5011245;28;20038;-76
2021/12/16 13:44:56;;;;;;;8.10;5.87;;;5.10;99.90;;;;;;5014220;28;20030;-76
2021/12/16 13:47:47;;;;;;;7.57;5.53;;;5.10;99.90;;;;;;5015384;28;20044;-76
2021/12/16 14:04:56;;;;;;;10.70;7.13;;;5.20;99.90;;;;;;5015806;28;20046;-76
2021/12/16 14:07:57;;;;;;;9.07;6.80;;;5.20;99.90;;;;;;5017510;28;20460;-76
2021/12/16 14:25:37;;;;;;;8.48;6.20;;;4.90;99.90;;;;;;4994161;28;20486;-79
2021/12/16 14:41:49;;;;;;;9.03;5.90;;;4.90;99.90;;;;;;4967866;28;20038;-76
2021/12/16 14:47:03;;;;;;;9.00;6.27;;;5.20;99.90;;;;;;4969260;28;20058;-74
2021/12/16 14:49:32;;;;;;;8.77;6.33;;;5.20;99.90;;;;;;4968578;28;20108;-74
2021/12/16 14:51:59;;;;;;;9.30;6.07;;;5.20;99.90;;;;;;5034978;28;20035;-73
2021/12/16 14:54:26;;;;;;;10.93;6.80;;;5.10;99.90;;;;;;5036116;28;20030;-74
2021/12/16 14:56:58;;;;;;;8.67;6.67;;;5.20;99.90;;;;;;4967928;28;20022;-76
2021/12/16 14:59:26;;;;;;;9.43;6.93;;;5.30;99.90;;;;;;4968908;28;20054;-78
2021/12/16 15:01:59;;;;;;;9.20;6.57;;;5.30;99.90;;;;;;4965385;28;20310;-74
2021/12/16 15:04:26;;;;;;;10.90;6.57;;;5.20;99.90;;;;;;4965109;28;20029;-77
2021/12/16 15:07:02;;;;;;;9.37;6.73;;;5.00;99.90;;;;;;4992469;28;20044;-78
2021/12/16 15:09:31;;;;;;;9.20;6.73;;;4.90;99.90;;;;;;4977745;28;20501;-77
2021/12/16 15:15:10;;;;;;;9.97;7.03;;;4.90;99.90;;;;;;4955280;28;20050;-77
2021/12/16 15:33:13;;;;;;;13.13;9.02;;;4.50;99.90;;;;;;4960931;28;20033;-76
2021/12/16 15:45:23;;;;;;;13.20;9.37;;;4.00;99.90;;;;;;4965011;28;20177;-76
2021/12/16 15:48:02;;;;;;;16.17;9.93;;;3.90;99.90;;;;;;4962745;28;20027;-76
2021/12/16 15:50:54;;;;;;;13.80;9.27;;;3.80;99.90;;;;;;4964900;28;20038;-76
2021/12/16 15:53:34;;;;;;;14.07;10.23;;;3.80;99.90;;;;;;4966219;28;20479;-76
2021/12/16 15:56:25;;;;;;;14.73;10.47;;;3.70;99.90;;;;;;4964606;28;20437;-76
2021/12/16 15:59:16;;;;;;;15.43;10.13;;;3.60;99.90;;;;;;4949294;28;20032;-76
2021/12/16 16:01:48;;;;;;;13.77;9.57;;;3.60;99.90;;;;;;4948388;28;20071;-74
2021/12/16 16:04:19;;;;;;;14.53;10.43;;;3.60;99.90;;;;;;4962431;28;20089;-77
2021/12/16 16:06:49;;;;;;;14.03;9.73;;;3.50;99.90;;;;;;5031193;28;20574;-82
2021/12/16 16:09:16;;;;;;;16.97;11.40;;;3.40;99.90;;;;;;4963497;28;20116;-81
2021/12/16 16:11:46;;;;;;;17.00;12.00;;;3.30;99.90;;;;;;4974763;28;20515;-75
2021/12/16 16:14:14;;;;;;;19.30;11.53;;;3.20;99.90;;;;;;4966718;28;20027;-76
2021/12/16 16:16:49;;;;;;;18.47;11.87;;;3.20;99.90;;;;;;4966821;28;20046;-76
2021/12/16 16:19:22;;;;;;;18.77;12.73;;;3.10;99.90;;;;;;4949920;28;20031;-76
2021/12/16 16:21:52;;;;;;;21.10;12.77;;;3.10;99.90;;;;;;5039289;28;20550;-76
2021/12/16 16:24:20;;;;;;;21.27;13.60;;;3.00;99.90;;;;;;4968789;28;20475;-75
2021/12/16 16:26:50;;;;;;;19.87;12.73;;;2.90;99.90;;;;;;5035431;28;20031;-76
2021/12/16 16:29:20;;;;;;;21.97;13.87;;;2.90;99.90;;;;;;4969181;28;20080;-76
2021/12/16 16:31:47;;;;;;;20.63;14.07;;;2.80;99.90;;;;;;5035534;28;20446;-76
2021/12/16 16:34:19;;;;;;;21.90;12.90;;;2.80;99.90;;;;;;4969212;28;20228;-76
2021/12/16 16:36:54;;;;;;;21.97;14.37;;;2.70;99.90;;;;;;5002345;28;20031;-77
2021/12/16 16:39:23;;;;;;;22.60;14.52;;;2.70;99.90;;;;;;4968775;28;20117;-77